Time;durP1;ratioP1;P1;durP2;ratioP2;P2;SDS_P1;SDS_P2;PMS_P1;PMS_P2;Temp;Humidity;BMP_temperature;BMP_pressure;BME280_temperature;BME280_humidity;BME280_pressure;Samples;Min_cycle;Max_cycle;Signal;HPM_P1;HPM_P2
2023/07/26 00:01:26;;;;;;;7.38;4.22;;;;;;;17.70;100.00;-18503.63;5090878;28;20035;-73
2023/07/26 00:03:55;;;;;;;8.00;4.43;;;;;;;17.68;100.00;-18503.06;5103992;28;20116;-75
2023/07/26 00:06:20;;;;;;;5.80;4.25;;;;;;;17.56;100.00;-18499.94;5103790;28;20044;-77
2023/07/26 00:08:46;;;;;;;5.55;4.00;;;;;;;17.59;100.00;-18500.75;5102466;28;20101;-75
2023/07/26 00:11:11;;;;;;;6.65;4.22;;;;;;;17.39;100.00;-18495.16;5103752;28;20532;-75
2023/07/26 00:13:36;;;;;;;6.90;4.43;;;;;;;17.58;100.00;-18500.34;5103160;28;20660;-77
2023/07/26 00:16:02;;;;;;;8.13;4.68;;;;;;;17.62;100.00;-18501.44;5086920;28;20494;-75
2023/07/26 00:18:27;;;;;;;6.85;4.18;;;;;;;17.68;100.00;-18502.94;5102680;28;20027;-76
2023/07/26 00:20:52;;;;;;;6.15;4.18;;;;;;;17.52;100.00;-18498.69;5081491;28;20099;-77
2023/07/26 00:23:18;;;;;;;5.63;4.25;;;;;;;17.71;100.00;-18503.88;5087050;28;20043;-76
2023/07/26 00:25:43;;;;;;;5.57;4.03;;;;;;;17.49;100.00;-18497.88;5103843;28;20696;-77
2023/07/26 00:28:08;;;;;;;5.72;4.10;;;;;;;17.66;100.00;-18502.50;5088369;28;20463;-76
2023/07/26 00:30:34;;;;;;;6.45;4.00;;;;;;;17.49;100.00;-18497.88;5103524;28;20038;-75
2023/07/26 00:32:59;;;;;;;6.47;3.72;;;;;;;17.47;100.00;-18497.34;5103482;28;20039;-76
2023/07/26 00:35:28;;;;;;;6.93;4.43;;;;;;;17.26;100.00;-18491.88;5084861;28;20054;-75
2023/07/26 00:37:53;;;;;;;6.85;4.63;;;;;;;17.35;100.00;-18494.19;5102169;28;20039;-75
2023/07/26 00:40:18;;;;;;;8.95;4.47;;;;;;;17.38;100.00;-18495.00;5102374;28;20046;-76
2023/07/26 00:42:44;;;;;;;6.93;4.40;;;;;;;17.45;100.00;-18496.78;5101738;28;20084;-76
2023/07/26 00:45:10;;;;;;;6.50;3.53;;;;;;;17.34;100.00;-18493.91;5103077;28;20035;-75
2023/07/26 00:47:36;;;;;;;6.22;3.85;;;;;;;17.28;100.00;-18492.41;5103085;28;20118;-75
2023/07/26 00:50:01;;;;;;;7.03;3.78;;;;;;;17.35;100.00;-18494.34;5098329;28;20097;-75
2023/07/26 00:52:27;;;;;;;5.97;4.57;;;;;;;17.41;100.00;-18495.84;5086557;28;20039;-73
2023/07/26 00:54:55;;;;;;;7.07;4.25;;;;;;;17.26;100.00;-18491.72;5101332;28;20040;-75
2023/07/26 00:57:21;;;;;;;5.05;3.90;;;;;;;17.06;100.00;-18486.41;5103033;28;20046;-74
2023/07/26 00:59:46;;;;;;;6.47;3.50;;;;;;;17.18;100.00;-18489.69;5100652;28;20765;-77
2023/07/26 01:02:12;;;;;;;7.35;3.83;;;;;;;17.17;100.00;-18489.41;5101538;28;20040;-76
2023/07/26 01:04:37;;;;;;;5.45;3.67;;;;;;;17.13;100.00;-18488.47;5102723;28;20039;-75
2023/07/26 01:07:36;;;;;;;5.10;3.50;;;;;;;17.06;100.00;-18486.41;5103365;28;20049;-76
2023/07/26 01:10:20;;;;;;;;;;;;;;;17.11;100.00;-18487.91;5094181;28;20181;-77
2023/07/26 01:13:22;;;;;;;4.60;3.30;;;;;;;16.96;100.00;-18483.81;5106568;28;19920;-76
2023/07/26 01:15:49;;;;;;;6.22;3.80;;;;;;;16.95;100.00;-18483.53;5072804;28;20035;-76
2023/07/26 01:18:16;;;;;;;8.07;3.50;;;;;;;16.95;100.00;-18483.41;5104920;28;20032;-75
2023/07/26 01:20:42;;;;;;;6.97;3.92;;;;;;;16.89;100.00;-18482.03;5104614;28;20119;-75
2023/07/26 01:23:08;;;;;;;5.50;4.10;;;;;;;16.86;100.00;-18481.22;5104789;27;20134;-75
2023/07/26 01:25:34;;;;;;;5.43;4.20;;;;;;;16.97;100.00;-18484.09;5107019;27;20085;-76
2023/07/26 01:27:59;;;;;;;7.20;4.40;;;;;;;16.97;100.00;-18483.94;5108063;27;20040;-77
2023/07/26 01:30:29;;;;;;;8.35;4.30;;;;;;;17.03;100.00;-18485.59;5104923;27;20538;-76
2023/07/26 01:33:01;;;;;;;8.35;4.68;;;;;;;17.19;100.00;-18489.97;5107006;27;20035;-75
2023/07/26 01:35:28;;;;;;;9.88;4.57;;;;;;;17.12;100.00;-18488.06;5107563;27;20055;-77
2023/07/26 01:37:54;;;;;;;6.88;4.68;;;;;;;17.01;100.00;-18485.19;5109546;27;20065;-77
2023/07/26 01:40:21;;;;;;;7.30;5.22;;;;;;;17.21;100.00;-18490.50;5106832;27;20043;-77
2023/07/26 01:42:47;;;;;;;6.53;4.60;;;;;;;17.27;100.00;-18492.16;5090777;28;20379;-77
2023/07/26 01:45:13;;;;;;;7.82;4.05;;;;;;;17.22;100.00;-18490.66;5108384;27;20066;-74
2023/07/26 01:47:38;;;;;;;7.03;4.55;;;;;;;17.09;100.00;-18487.22;5106645;27;20498;-75
2023/07/26 01:50:04;;;;;;;7.50;4.72;;;;;;;17.17;100.00;-18489.41;5108352;27;20036;-75
2023/07/26 01:52:30;;;;;;;7.75;4.88;;;;;;;17.35;100.00;-18494.34;5105289;28;20051;-75
2023/07/26 01:54:55;;;;;;;7.80;4.88;;;;;;;17.28;100.00;-18492.41;5110410;27;20032;-77
2023/07/26 01:57:24;;;;;;;9.38;4.95;;;;;;;17.34;100.00;-18494.06;5091946;28;20115;-76
2023/07/26 01:59:49;;;;;;;;;;;;;;;17.52;100.00;-18498.69;5107933;27;20468;-75
2023/07/26 02:02:15;;;;;;;7.43;4.28;;;;;;;17.31;100.00;-18493.25;5106737;27;19919;-76
2023/07/26 02:04:40;;;;;;;7.07;4.57;;;;;;;17.35;100.00;-18494.34;5108340;27;20064;-75
2023/07/26 02:07:05;;;;;;;7.03;4.53;;;;;;;17.42;100.00;-18495.97;5107655;27;20059;-76
2023/07/26 02:09:31;;;;;;;6.72;4.63;;;;;;;17.31;100.00;-18493.25;5090590;28;20100;-77
2023/07/26 02:11:56;;;;;;;6.70;4.90;;;;;;;17.11;100.00;-18487.78;5108037;27;20031;-75
2023/07/26 02:14:21;;;;;;;6.82;4.55;;;;;;;16.98;100.00;-18484.38;5105855;27;20047;-76
2023/07/26 02:16:47;;;;;;;8.43;5.10;;;;;;;16.92;100.00;-18482.72;5106794;27;20119;-76
2023/07/26 02:19:12;;;;;;;7.82;4.90;;;;;;;17.15;100.00;-18488.88;5107505;27;20398;-76
2023/07/26 02:21:37;;;;;;;6.78;4.65;;;;;;;17.23;100.00;-18491.06;5106475;27;20100;-76
2023/07/26 02:24:03;;;;;;;8.20;5.40;;;;;;;17.48;100.00;-18497.59;5113087;27;20100;-76
2023/07/26 02:26:28;;;;;;;8.40;5.38;;;;;;;17.46;100.00;-18497.06;5110330;27;20491;-76
2023/07/26 02:28:54;;;;;;;10.07;5.97;;;;;;;17.43;100.00;-18496.25;5108976;27;20078;-75
2023/07/26 02:31:19;;;;;;;8.40;5.47;;;;;;;17.46;100.00;-18497.06;5107560;27;20067;-76
2023/07/26 02:33:45;;;;;;;7.50;5.72;;;;;;;17.55;100.00;-18499.66;5106863;28;20411;-76
2023/07/26 02:36:10;;;;;;;6.97;5.57;;;;;;;17.65;100.00;-18502.25;5088454;28;20038;-76
2023/07/26 02:38:36;;;;;;;9.70;5.85;;;;;;;17.64;100.00;-18501.97;5111061;27;20092;-76
2023/07/26 02:41:01;;;;;;;9.48;5.95;;;;;;;17.60;100.00;-18500.88;5104878;27;20047;-76
2023/07/26 02:43:26;;;;;;;11.18;6.75;;;;;;;17.57;100.00;-18500.06;5106406;27;20502;-76
2023/07/26 02:45:52;;;;;;;8.20;6.75;;;;;;;17.71;100.00;-18503.75;5115006;27;20035;-76
2023/07/26 02:48:17;;;;;;;8.55;6.28;;;;;;;17.65;100.00;-18502.09;5106330;27;20036;-76
2023/07/26 02:50:42;;;;;;;9.02;6.38;;;;;;;17.62;100.00;-18501.44;5109772;27;20535;-76
2023/07/26 02:53:08;;;;;;;9.98;6.90;;;;;;;17.69;100.00;-18503.19;5083828;28;20095;-78
2023/07/26 02:55:33;;;;;;;11.65;7.45;;;;;;;17.61;100.00;-18501.16;5108340;27;20047;-76
2023/07/26 02:57:58;;;;;;;13.23;6.93;;;;;;;17.46;100.00;-18497.06;5108420;27;20506;-78
2023/07/26 03:00:24;;;;;;;9.68;7.75;;;;;;;17.31;100.00;-18493.25;5107229;27;20105;-77
2023/07/26 03:02:49;;;;;;;9.50;7.63;;;;;;;17.62;100.00;-18501.44;5107751;27;20753;-78
2023/07/26 03:05:14;;;;;;;14.13;7.53;;;;;;;17.67;100.00;-18502.78;5106480;27;20044;-76
2023/07/26 03:07:40;;;;;;;9.18;7.25;;;;;;;17.35;100.00;-18494.19;5105754;27;20035;-76
2023/07/26 03:10:06;;;;;;;11.88;8.10;;;;;;;17.42;100.00;-18496.09;5105272;27;20387;-76
2023/07/26 03:12:31;;;;;;;11.20;7.93;;;;;;;17.57;100.00;-18500.19;5112003;27;20034;-76
2023/07/26 03:14:56;;;;;;;10.10;7.55;;;;;;;17.32;100.00;-18493.38;5106388;27;20065;-76
2023/07/26 03:17:22;;;;;;;9.80;7.05;;;;;;;17.20;100.00;-18490.09;5113121;27;20043;-76
2023/07/26 03:19:47;;;;;;;11.40;7.15;;;;;;;17.12;100.00;-18488.19;5104527;27;20047;-76
2023/07/26 03:22:12;;;;;;;12.40;7.13;;;;;;;17.07;100.00;-18486.69;5103753;27;20462;-77
2023/07/26 03:24:38;;;;;;;12.73;9.02;;;;;;;17.17;100.00;-18489.41;5104609;27;20033;-75
2023/07/26 03:27:03;;;;;;;12.48;8.48;;;;;;;17.24;100.00;-18491.19;5106061;27;20478;-77
2023/07/26 03:29:29;;;;;;;12.93;8.60;;;;;;;17.26;100.00;-18491.88;5100957;27;20615;-76
2023/07/26 03:31:54;;;;;;;13.50;8.38;;;;;;;16.96;100.00;-18483.69;5104424;27;20130;-75
2023/07/26 03:34:19;;;;;;;12.40;7.50;;;;;;;17.08;100.00;-18486.97;5103542;27;20062;-77
2023/07/26 03:36:45;;;;;;;12.70;8.40;;;;;;;17.00;100.00;-18484.78;5103659;27;20035;-76
2023/07/26 03:39:10;;;;;;;12.60;9.00;;;;;;;16.96;100.00;-18483.69;5109270;27;20063;-75
2023/07/26 03:41:36;;;;;;;12.60;7.72;;;;;;;16.90;100.00;-18482.31;5104688;27;20043;-77
2023/07/26 03:44:01;;;;;;;12.43;9.25;;;;;;;17.01;100.00;-18485.03;5106212;27;20071;-76
2023/07/26 03:46:26;;;;;;;15.98;9.80;;;;;;;17.02;100.00;-18485.31;5103515;27;20039;-76
2023/07/26 03:48:52;;;;;;;12.75;8.77;;;;;;;16.96;100.00;-18483.81;5106856;28;20457;-76
2023/07/26 03:51:17;;;;;;;13.07;9.38;;;;;;;16.99;100.00;-18484.63;5090079;27;20046;-75
2023/07/26 03:53:42;;;;;;;11.55;8.90;;;;;;;16.94;100.00;-18483.13;5108468;27;20557;-77
2023/07/26 03:56:08;;;;;;;13.98;10.27;;;;;;;16.85;100.00;-18480.81;5106669;27;20039;-77
2023/07/26 03:58:33;;;;;;;14.80;9.52;;;;;;;16.70;100.00;-18476.97;5092160;27;20039;-77
2023/07/26 04:00:58;;;;;;;12.43;9.40;;;;;;;16.50;100.00;-18471.38;5106570;27;20538;-76
2023/07/26 04:03:24;;;;;;;11.32;9.32;;;;;;;16.63;100.00;-18475.06;5106065;27;20043;-76
2023/07/26 04:05:49;;;;;;;13.43;10.40;;;;;;;16.52;100.00;-18471.94;5107665;27;20504;-76
2023/07/26 04:08:15;;;;;;;12.40;9.07;;;;;;;16.29;100.00;-18465.91;5107462;28;20050;-77
2023/07/26 04:10:40;;;;;;;14.43;9.90;;;;;;;16.38;100.00;-18468.25;5109321;27;20096;-75
2023/07/26 04:13:05;;;;;;;12.52;10.05;;;;;;;16.26;100.00;-18465.09;5108824;28;20135;-76
2023/07/26 04:15:31;;;;;;;14.05;9.82;;;;;;;16.24;100.00;-18464.56;5106266;27;20036;-76
2023/07/26 04:17:56;;;;;;;12.93;10.05;;;;;;;16.58;100.00;-18473.56;5106129;28;20042;-76
2023/07/26 04:20:22;;;;;;;15.57;10.80;;;;;;;16.16;100.00;-18462.38;5102992;28;20506;-76
2023/07/26 04:22:47;;;;;;;16.58;10.85;;;;;;;16.46;100.00;-18470.56;5105315;27;20094;-76
2023/07/26 04:25:13;;;;;;;14.25;11.27;;;;;;;16.33;100.00;-18466.88;5092678;28;20090;-76
2023/07/26 04:27:38;;;;;;;13.95;9.73;;;;;;;16.27;100.00;-18465.38;5104650;27;20028;-76
2023/07/26 04:30:04;;;;;;;15.75;10.38;;;;;;;16.31;100.00;-18466.47;5088330;28;20126;-76
2023/07/26 04:32:29;;;;;;;19.08;11.07;;;;;;;16.26;100.00;-18465.09;5104511;28;20031;-75
2023/07/26 04:34:54;;;;;;;14.90;9.70;;;;;;;16.35;100.00;-18467.56;5106797;28;20058;-77
2023/07/26 04:37:20;;;;;;;14.18;10.00;;;;;;;16.38;100.00;-18468.25;5106827;28;20046;-76
2023/07/26 04:39:46;;;;;;;15.10;10.57;;;;;;;16.34;100.00;-18467.28;5105123;28;20040;-76
2023/07/26 04:42:11;;;;;;;14.73;11.45;;;;;;;16.28;100.00;-18465.63;5109924;27;20035;-77
2023/07/26 04:44:36;;;;;;;17.00;11.32;;;;;;;16.33;100.00;-18466.88;5088413;28;20040;-77
2023/07/26 04:47:02;;;;;;;16.73;11.70;;;;;;;16.29;100.00;-18465.91;5104781;28;20042;-77
2023/07/26 04:49:27;;;;;;;13.00;10.35;;;;;;;16.38;100.00;-18468.38;5084281;28;20044;-76
2023/07/26 04:51:53;;;;;;;12.85;10.40;;;;;;;16.36;100.00;-18467.81;5106036;28;20406;-76
2023/07/26 04:54:18;;;;;;;13.63;11.07;;;;;;;16.46;100.00;-18470.56;5105322;28;20048;-77
2023/07/26 04:56:43;;;;;;;15.05;11.23;;;;;;;16.41;100.00;-18469.06;5108022;27;20039;-77
2023/07/26 04:59:09;;;;;;;17.05;11.13;;;;;;;16.52;100.00;-18471.94;5106861;28;20061;-77
2023/07/26 05:01:34;;;;;;;14.10;11.35;;;;;;;16.55;100.00;-18472.88;5105512;28;20044;-77
2023/07/26 05:04:00;;;;;;;15.90;11.65;;;;;;;16.50;100.00;-18471.38;5106184;27;20036;-76
2023/07/26 05:06:25;;;;;;;13.45;9.95;;;;;;;16.58;100.00;-18473.56;5090661;27;20472;-76
2023/07/26 05:08:51;;;;;;;14.60;10.45;;;;;;;16.51;100.00;-18471.66;5110025;27;20036;-77
2023/07/26 05:11:20;;;;;;;14.52;10.70;;;;;;;16.47;100.00;-18470.69;5115851;27;20546;-76
2023/07/26 05:13:46;;;;;;;15.27;11.20;;;;;;;16.68;100.00;-18476.44;5112969;27;22169;-76
2023/07/26 05:16:11;;;;;;;16.35;12.13;;;;;;;16.61;100.00;-18474.38;5112251;27;20047;-76
2023/07/26 05:18:36;;;;;;;14.75;10.15;;;;;;;16.70;100.00;-18476.84;5108141;27;20043;-76
2023/07/26 05:21:02;;;;;;;14.10;11.00;;;;;;;16.83;100.00;-18480.41;5113066;27;20060;-78
2023/07/26 05:23:28;;;;;;;15.48;10.90;;;;;;;16.95;100.00;-18483.53;5107218;28;20051;-77
2023/07/26 05:25:53;;;;;;;13.88;9.45;;;;;;;16.90;100.00;-18482.19;5095806;27;20031;-76
2023/07/26 05:28:19;;;;;;;16.00;10.02;;;;;;;16.89;100.00;-18481.91;5105260;27;20039;-75
2023/07/26 05:30:44;;;;;;;16.73;11.13;;;;;;;17.08;100.00;-18487.09;5109895;27;20082;-77
2023/07/26 05:33:09;;;;;;;14.23;9.27;;;;;;;16.99;100.00;-18484.50;5110059;28;20123;-76
2023/07/26 05:35:35;;;;;;;12.63;9.73;;;;;;;16.97;100.00;-18483.94;5094245;28;20494;-76
2023/07/26 05:38:01;;;;;;;15.70;9.35;;;;;;;16.97;100.00;-18483.94;5112649;27;20047;-76
2023/07/26 05:40:27;;;;;;;14.35;10.77;;;;;;;17.32;100.00;-18493.50;5120447;27;20067;-76
2023/07/26 05:42:53;;;;;;;14.07;9.85;;;;;;;17.29;100.00;-18492.69;5111468;27;20027;-76
2023/07/26 05:45:18;;;;;;;13.38;8.65;;;;;;;17.43;100.00;-18496.25;5112851;27;20040;-76
2023/07/26 05:47:43;;;;;;;11.93;9.77;;;;;;;17.48;100.00;-18497.75;5115145;27;20043;-77
2023/07/26 05:50:12;;;;;;;14.27;10.18;;;;;;;17.27;100.00;-18492.16;5110056;27;20546;-76
2023/07/26 05:52:38;;;;;;;13.38;9.13;;;;;;;17.39;100.00;-18495.28;5109587;27;20095;-75
2023/07/26 05:55:04;;;;;;;14.05;9.77;;;;;;;17.56;100.00;-18499.78;5091523;27;20655;-75
2023/07/26 05:57:29;;;;;;;13.23;7.85;;;;;;;17.64;100.00;-18501.97;5104093;27;20063;-77
2023/07/26 05:59:55;;;;;;;10.75;8.98;;;;;;;17.42;100.00;-18495.97;5108953;27;20061;-76
2023/07/26 06:02:20;;;;;;;11.27;8.10;;;;;;;17.46;100.00;-18497.06;5106710;27;20040;-76
2023/07/26 06:04:46;;;;;;;12.45;8.60;;;;;;;17.52;100.00;-18498.69;5107966;27;20069;-77
2023/07/26 06:07:12;;;;;;;10.20;6.90;;;;;;;17.54;100.00;-18499.38;5108405;27;20027;-77
2023/07/26 06:09:37;;;;;;;12.02;8.35;;;;;;;17.75;100.00;-18504.97;5109915;27;20574;-76
2023/07/26 06:12:03;;;;;;;11.30;8.63;;;;;;;17.86;100.00;-18507.72;5101665;27;20128;-76
2023/07/26 06:14:29;;;;;;;10.88;7.85;;;;;;;17.88;100.00;-18508.25;5109876;27;20411;-76
2023/07/26 06:16:54;;;;;;;11.05;8.95;;;;;;;18.00;100.00;-18511.66;5115366;27;20035;-78
2023/07/26 06:19:21;;;;;;;10.70;8.65;;;;;;;18.02;100.00;-18512.06;5117684;27;20487;-78
2023/07/26 06:21:46;;;;;;;11.25;8.27;;;;;;;18.08;100.00;-18513.56;5110614;27;20039;-76
2023/07/26 06:24:12;;;;;;;11.50;8.07;;;;;;;18.06;100.00;-18513.16;5114989;28;20046;-77
2023/07/26 06:26:38;;;;;;;11.45;8.00;;;;;;;18.17;100.00;-18516.16;5117461;27;20067;-78
2023/07/26 06:29:04;;;;;;;11.02;7.50;;;;;;;18.27;100.00;-18518.91;5111780;27;20501;-77
2023/07/26 06:31:30;;;;;;;9.52;7.93;;;;;;;18.46;100.00;-18523.81;5110382;27;20044;-79
2023/07/26 06:33:55;;;;;;;10.77;8.27;;;;;;;18.66;100.00;-18529.13;5110073;27;20047;-78
2023/07/26 06:36:20;;;;;;;10.25;7.47;;;;;;;18.76;100.00;-18531.84;5109071;27;20039;-78
2023/07/26 06:38:46;;;;;;;10.63;7.97;;;;;;;18.78;100.00;-18532.41;5108866;27;20043;-78
2023/07/26 06:41:11;;;;;;;9.73;7.07;;;;;;;18.93;100.00;-18536.50;5110206;27;20040;-76
2023/07/26 06:43:37;;;;;;;8.95;6.18;;;;;;;18.80;100.00;-18532.94;5105751;27;20074;-75
2023/07/26 06:46:03;;;;;;;8.00;6.45;;;;;;;18.89;100.00;-18535.25;5107455;27;20035;-77
2023/07/26 06:48:28;;;;;;;10.23;6.32;;;;;;;18.97;100.00;-18537.44;5097114;28;20109;-80
2023/07/26 06:50:54;;;;;;;9.02;5.90;;;;;;;18.91;100.00;-18535.94;5111535;27;20672;-76
2023/07/26 06:53:19;;;;;;;9.73;6.78;;;;;;;19.13;100.00;-18541.66;5104668;28;20062;-77
2023/07/26 06:55:45;;;;;;;8.68;5.78;;;;;;;19.39;100.00;-18548.59;5112078;28;20044;-76
2023/07/26 06:58:10;;;;;;;7.63;6.15;;;;;;;19.48;100.00;-18551.06;5110613;28;20057;-77
2023/07/26 07:00:35;;;;;;;9.00;5.88;;;;;;;19.60;100.00;-18554.34;5112698;28;20051;-77
2023/07/26 07:03:02;;;;;;;9.05;5.30;;;;;;;19.56;100.00;-18553.09;5112048;28;20709;-78
2023/07/26 07:05:29;;;;;;;7.15;4.95;;;;;;;19.74;100.00;-18558.00;5110750;28;20050;-77
2023/07/26 07:07:54;;;;;;;7.88;5.25;;;;;;;20.08;99.03;-18567.00;5110978;28;20065;-78
2023/07/26 07:10:21;;;;;;;8.95;5.60;;;;;;;20.30;97.64;-18572.84;5110222;28;20062;-77
2023/07/26 07:12:46;;;;;;;9.55;4.63;;;;;;;20.41;93.39;-18575.72;5106942;28;20047;-77
2023/07/26 07:15:13;;;;;;;6.20;4.15;;;;;;;20.53;92.97;-18578.84;5109046;28;20027;-77
2023/07/26 07:17:38;;;;;;;6.20;4.00;;;;;;;20.41;94.19;-18575.84;5106263;28;20047;-77
2023/07/26 07:20:05;;;;;;;5.63;3.45;;;;;;;20.31;93.93;-18573.00;5107313;28;20039;-79
2023/07/26 07:22:30;;;;;;;6.20;3.67;;;;;;;20.51;92.32;-18578.56;5107074;28;20043;-78
2023/07/26 07:24:56;;;;;;;7.28;3.50;;;;;;;20.55;89.56;-18579.38;5090399;28;20028;-78
2023/07/26 07:27:21;;;;;;;7.22;3.60;;;;;;;20.27;90.73;-18572.16;5108393;28;20035;-79
2023/07/26 07:29:47;;;;;;;6.50;3.10;;;;;;;20.60;89.21;-18580.75;5109339;28;20035;-77
2023/07/26 07:32:12;;;;;;;6.80;3.72;;;;;;;20.40;89.75;-18575.56;5088428;28;20035;-77
2023/07/26 07:34:38;;;;;;;5.43;3.47;;;;;;;20.62;89.86;-18581.28;5107602;28;20036;-76
2023/07/26 07:37:04;;;;;;;5.55;3.92;;;;;;;20.48;90.93;-18577.63;5103841;28;20122;-77
2023/07/26 07:39:30;;;;;;;6.97;4.10;;;;;;;20.53;90.29;-18578.84;5107238;28;20096;-78
2023/07/26 07:41:55;;;;;;;6.47;3.92;;;;;;;20.48;91.27;-18577.75;5108353;28;20134;-78
2023/07/26 07:44:20;;;;;;;6.68;4.80;;;;;;;20.54;90.86;-18579.25;5107688;28;20076;-77
2023/07/26 07:46:46;;;;;;;5.40;4.07;;;;;;;20.33;92.14;-18573.66;5106581;28;20069;-78
2023/07/26 07:49:11;;;;;;;5.10;3.80;;;;;;;20.29;92.87;-18572.59;5104376;28;20066;-78
2023/07/26 07:51:38;;;;;;;6.95;4.35;;;;;;;20.36;94.50;-18574.34;5102764;28;20085;-77
2023/07/26 07:54:04;;;;;;;6.35;4.20;;;;;;;20.26;95.20;-18571.75;5104956;28;20116;-78
2023/07/26 07:56:29;;;;;;;6.55;3.88;;;;;;;20.29;94.04;-18572.72;5107632;28;20040;-78
2023/07/26 07:58:54;;;;;;;8.02;4.20;;;;;;;20.47;94.69;-18577.34;5104655;28;20040;-77
2023/07/26 08:01:20;;;;;;;5.30;4.22;;;;;;;20.54;94.62;-18579.13;5103718;28;20054;-77
2023/07/26 08:03:46;;;;;;;6.93;4.53;;;;;;;20.43;92.84;-18576.41;5101537;28;20056;-78
2023/07/26 08:06:12;;;;;;;7.28;4.60;;;;;;;20.34;92.84;-18573.94;5105125;28;20039;-77
2023/07/26 08:08:39;;;;;;;7.07;4.18;;;;;;;20.41;93.13;-18575.72;5105484;28;20078;-76
2023/07/26 08:11:04;;;;;;;6.80;4.20;;;;;;;20.40;91.98;-18575.44;5104917;28;20036;-77
2023/07/26 08:13:30;;;;;;;8.73;5.15;;;;;;;20.19;94.99;-18569.84;5106140;28;20043;-78
2023/07/26 08:15:58;;;;;;;10.73;4.45;;;;;;;20.12;95.07;-18567.97;5105883;28;20055;-77
2023/07/26 08:18:24;;;;;;;6.65;5.03;;;;;;;20.31;97.29;-18573.00;5104434;28;20032;-78
2023/07/26 08:20:49;;;;;;;8.48;4.75;;;;;;;20.48;93.63;-18577.75;5100857;28;20039;-77
2023/07/26 08:23:14;;;;;;;7.65;5.15;;;;;;;20.35;94.84;-18574.22;5104182;28;20039;-77
2023/07/26 08:25:40;;;;;;;7.45;5.10;;;;;;;20.58;96.65;-18580.34;5106612;28;20506;-76
2023/07/26 08:28:06;;;;;;;8.75;5.80;;;;;;;20.68;96.24;-18582.94;5106074;28;20051;-77
2023/07/26 08:30:32;;;;;;;8.65;5.72;;;;;;;20.58;95.34;-18580.22;5105203;28;20513;-76
2023/07/26 08:32:57;;;;;;;6.70;4.97;;;;;;;20.52;94.35;-18578.72;5106262;28;20055;-77
2023/07/26 08:35:23;;;;;;;7.45;5.05;;;;;;;20.54;93.83;-18579.13;5106870;28;20564;-75
2023/07/26 08:37:48;;;;;;;7.53;5.63;;;;;;;20.68;95.08;-18582.94;5105472;28;20452;-76
2023/07/26 08:40:14;;;;;;;7.47;5.53;;;;;;;20.91;92.19;-18589.03;5105646;28;20118;-77
2023/07/26 08:42:40;;;;;;;6.07;4.10;;;;;;;20.73;91.90;-18584.41;5104886;28;20044;-76
2023/07/26 08:45:07;;;;;;;8.20;5.28;;;;;;;20.71;93.59;-18583.75;5086116;28;20035;-76
2023/07/26 08:47:34;;;;;;;6.78;4.50;;;;;;;20.67;87.86;-18582.78;5102243;28;20043;-75
2023/07/26 08:50:01;;;;;;;5.95;3.60;;;;;;;20.48;85.22;-18577.75;5104730;28;20499;-77
2023/07/26 08:52:27;;;;;;;5.47;3.55;;;;;;;20.64;85.92;-18581.97;5087346;28;20052;-76
2023/07/26 08:54:53;;;;;;;5.00;3.33;;;;;;;21.02;80.62;-18591.91;5104557;28;20855;-75
2023/07/26 08:57:19;;;;;;;5.63;2.95;;;;;;;20.85;75.89;-18587.56;5103709;28;20088;-77
2023/07/26 08:59:44;;;;;;;5.00;2.80;;;;;;;20.99;81.10;-18591.09;5081314;28;20031;-77
2023/07/26 09:02:13;;;;;;;6.97;3.42;;;;;;;21.05;82.09;-18592.72;5103003;28;20032;-77
2023/07/26 09:04:39;;;;;;;5.80;2.92;;;;;;;21.10;81.74;-18594.09;5101742;28;20073;-77
2023/07/26 09:07:05;;;;;;;6.82;3.42;;;;;;;21.09;82.56;-18593.94;5096285;28;20036;-77
2023/07/26 09:09:32;;;;;;;5.82;2.80;;;;;;;21.19;79.86;-18596.53;5105964;28;20054;-77
2023/07/26 09:11:58;;;;;;;6.18;2.72;;;;;;;21.15;81.57;-18595.44;5102230;28;20032;-77
2023/07/26 09:14:28;;;;;;;6.55;3.83;;;;;;;21.22;84.75;-18597.34;5101647;27;20394;-78
2023/07/26 09:16:56;;;;;;;5.85;3.97;;;;;;;21.02;87.63;-18591.91;5108366;28;20035;-78
2023/07/26 09:19:30;;;;;;;9.93;6.60;;;;;;;20.88;93.61;-18588.38;5108991;28;20043;-78
2023/07/26 09:21:58;;;;;;;12.82;9.27;;;;;;;20.59;99.85;-18580.47;5107851;28;20035;-78
2023/07/26 09:24:40;;;;;;;15.38;11.27;;;;;;;20.63;100.00;-18581.56;5104040;28;20044;-76
2023/07/26 09:27:08;;;;;;;13.65;10.13;;;;;;;20.69;99.07;-18583.19;5100972;28;20032;-76
2023/07/26 09:29:35;;;;;;;14.20;10.88;;;;;;;20.98;100.00;-18590.81;5102608;28;20103;-77
2023/07/26 09:32:01;;;;;;;16.05;10.65;;;;;;;21.16;94.84;-18595.84;5105393;28;20035;-77
2023/07/26 09:34:27;;;;;;;12.32;9.95;;;;;;;21.19;93.66;-18596.66;5105494;28;20055;-78
2023/07/26 09:36:53;;;;;;;13.77;9.48;;;;;;;20.96;94.61;-18590.53;5104647;28;20048;-77
2023/07/26 09:39:20;;;;;;;11.23;9.15;;;;;;;21.27;95.14;-18598.69;5084569;28;20047;-77
2023/07/26 09:41:46;;;;;;;11.77;8.68;;;;;;;21.10;95.45;-18594.22;5106104;28;20069;-75
2023/07/26 09:44:19;;;;;;;10.45;8.93;;;;;;;21.36;91.62;-18601.16;5088506;28;20047;-76
2023/07/26 09:46:50;;;;;;;9.07;6.88;;;;;;;21.35;87.20;-18600.88;5085967;28;20521;-78
2023/07/26 09:49:19;;;;;;;9.40;6.55;;;;;;;21.32;83.30;-18600.06;5108425;28;20638;-78
2023/07/26 09:51:45;;;;;;;6.40;4.57;;;;;;;21.48;77.13;-18604.16;5108127;28;20043;-78
2023/07/26 09:54:12;;;;;;;6.43;4.85;;;;;;;21.63;77.01;-18608.22;5092607;28;20098;-76
2023/07/26 09:56:40;;;;;;;4.82;3.38;;;;;;;21.76;75.78;-18611.75;5103868;28;20048;-78
2023/07/26 09:59:13;;;;;;;6.22;3.47;;;;;;;21.58;72.70;-18607.00;5109626;28;20050;-79
2023/07/26 10:01:41;;;;;;;3.55;2.10;;;;;;;21.57;64.46;-18606.72;5084035;28;20039;-77
2023/07/26 10:04:12;;;;;;;2.95;1.70;;;;;;;21.36;66.46;-18601.00;5110560;28;20043;-77
2023/07/26 10:06:39;;;;;;;1.70;0.82;;;;;;;21.46;59.83;-18603.59;5110912;28;20040;-79
2023/07/26 10:09:05;;;;;;;2.08;0.88;;;;;;;21.72;58.67;-18610.66;5111337;28;20119;-78
2023/07/26 10:11:31;;;;;;;1.90;0.75;;;;;;;21.89;58.40;-18615.00;5109327;28;20151;-78
2023/07/26 10:13:59;;;;;;;2.35;0.57;;;;;;;21.88;55.62;-18614.75;5109558;28;20047;-78
2023/07/26 10:16:25;;;;;;;1.40;0.70;;;;;;;21.82;54.31;-18613.38;5110906;28;20089;-77
2023/07/26 10:18:53;;;;;;;1.20;0.63;;;;;;;21.71;56.00;-18610.25;5111639;28;20035;-77
2023/07/26 10:21:20;;;;;;;2.80;0.95;;;;;;;21.81;55.63;-18613.13;5110203;28;20537;-78
2023/07/26 10:23:48;;;;;;;2.05;1.05;;;;;;;21.87;57.31;-18614.59;5108274;28;20060;-78
2023/07/26 10:26:15;;;;;;;2.38;1.02;;;;;;;22.11;57.48;-18621.00;5106680;28;20609;-76
2023/07/26 10:28:41;;;;;;;2.65;1.30;;;;;;;22.21;56.61;-18623.72;5107523;28;20040;-78
2023/07/26 10:31:07;;;;;;;2.58;1.00;;;;;;;22.60;56.34;-18633.91;5089952;28;20039;-78
2023/07/26 10:33:33;;;;;;;2.00;1.20;;;;;;;22.56;54.74;-18632.81;5091946;28;20043;-78
2023/07/26 10:36:04;;;;;;;2.70;1.25;;;;;;;22.52;55.28;-18631.84;5108185;28;20154;-76
2023/07/26 10:38:29;;;;;;;3.45;1.30;;;;;;;22.37;54.79;-18627.91;5109503;28;20043;-76
2023/07/26 10:40:54;;;;;;;3.83;1.60;;;;;;;22.67;55.85;-18635.94;5088401;28;20127;-78
2023/07/26 10:43:20;;;;;;;3.03;1.92;;;;;;;22.70;54.95;-18636.59;5107398;27;20126;-78
2023/07/26 10:45:46;;;;;;;3.17;1.70;;;;;;;22.91;54.20;-18642.19;5088255;28;20067;-76
2023/07/26 10:48:34;;;;;;;2.95;1.42;;;;;;;23.00;55.35;-18644.63;5110890;28;20050;-77
2023/07/26 10:50:59;;;;;;;4.05;1.70;;;;;;;22.93;54.84;-18642.72;5110718;28;20047;-77
2023/07/26 10:53:30;;;;;;;3.58;1.80;;;;;;;22.97;54.98;-18643.81;5104470;28;20040;-77
2023/07/26 10:56:06;;;;;;;3.60;1.75;;;;;;;23.09;54.82;-18647.06;5103845;28;20070;-77
2023/07/26 10:58:32;;;;;;;3.70;2.00;;;;;;;22.98;55.36;-18644.22;5103739;28;20050;-77
2023/07/26 11:01:03;;;;;;;3.58;1.70;;;;;;;23.08;55.68;-18646.66;5105344;28;20039;-78
2023/07/26 11:03:29;;;;;;;3.58;2.17;;;;;;;23.37;56.63;-18654.53;5084902;28;20039;-77
2023/07/26 11:05:56;;;;;;;5.22;2.20;;;;;;;23.47;56.16;-18657.09;5103257;28;20410;-76
2023/07/26 11:08:40;;;;;;;5.28;2.25;;;;;;;23.42;55.36;-18655.88;5090195;28;20039;-77
2023/07/26 11:11:05;;;;;;;4.63;2.10;;;;;;;23.36;57.50;-18654.13;5089880;28;20102;-79
2023/07/26 11:13:32;;;;;;;4.22;1.90;;;;;;;23.33;54.51;-18653.31;5108927;28;20644;-77